Time;durP1;ratioP1;P1;durP2;ratioP2;P2;SDS_P1;SDS_P2;PMS_P1;PMS_P2;Temp;Humidity;BMP_temperature;BMP_pressure;BME280_temperature;BME280_humidity;BME280_pressure;Samples;Min_cycle;Max_cycle;Signal;HPM_P1;HPM_P2
2022/04/15 00:00:40;;;;;;;36.72;28.15;;;;;;;10.94;87.15;99213.75;2065352;28;20682;-71
2022/04/15 00:01:43;;;;;;;38.97;29.25;;;;;;;11.01;86.56;99224.84;2073133;28;20212;-71
2022/04/15 00:02:45;;;;;;;33.90;27.30;;;;;;;11.06;83.67;99226.63;2073312;28;20675;-72
2022/04/15 00:03:46;;;;;;;41.88;29.00;;;;;;;11.11;84.68;99224.63;2065150;28;20695;-71
2022/04/15 00:04:47;;;;;;;36.60;28.27;;;;;;;11.16;82.19;99227.22;2065406;28;20595;-70
2022/04/15 00:05:52;;;;;;;41.45;28.98;;;;;;;11.22;83.19;99215.38;2065847;28;20220;-71
2022/04/15 00:06:55;;;;;;;42.85;28.13;;;;;;;11.24;83.26;99223.88;2073017;28;20250;-71
2022/04/15 00:07:56;;;;;;;32.50;27.83;;;;;;;11.22;83.56;99226.06;2073131;28;20215;-71
2022/04/15 00:08:59;;;;;;;36.37;27.70;;;;;;;11.21;81.49;99226.34;2065873;28;20200;-70
2022/04/15 00:10:01;;;;;;;41.50;29.55;;;;;;;11.23;80.94;99227.63;2065845;28;20288;-70
2022/04/15 00:11:02;;;;;;;35.05;28.02;;;;;;;11.22;81.79;99223.38;2065878;28;20197;-71
2022/04/15 00:12:10;;;;;;;36.47;28.60;;;;;;;11.29;79.48;99234.47;2065810;28;20596;-71
2022/04/15 00:13:14;;;;;;;41.42;27.80;;;;;;;11.33;78.99;99230.13;2066081;28;20553;-70
2022/04/15 00:14:17;;;;;;;40.70;27.17;;;;;;;11.39;78.27;99230.03;2065801;28;20189;-71
2022/04/15 00:15:19;;;;;;;41.95;29.73;;;;;;;11.40;80.15;99227.06;2064796;28;20683;-70
2022/04/15 00:16:21;;;;;;;39.53;29.40;;;;;;;11.41;80.91;99225.16;2065254;28;20630;-71
2022/04/15 00:17:23;;;;;;;43.42;33.30;;;;;;;11.39;90.33;99193.41;2065820;28;20197;-71
2022/04/15 00:18:24;;;;;;;42.10;30.47;;;;;;;11.31;94.51;99189.56;2065956;28;20195;-71
2022/04/15 00:19:25;;;;;;;43.85;32.42;;;;;;;11.22;98.70;99182.53;2065789;28;20218;-71
2022/04/15 00:20:27;;;;;;;43.63;32.30;;;;;;;11.11;100.00;99187.25;2064677;28;20255;-70
2022/04/15 00:21:29;;;;;;;42.47;31.40;;;;;;;11.00;100.00;99183.19;2064703;28;20587;-71
2022/04/15 00:22:32;;;;;;;46.42;31.65;;;;;;;10.90;100.00;99180.72;2065073;28;20213;-71
2022/04/15 00:23:34;;;;;;;44.35;31.85;;;;;;;10.81;100.00;99180.63;2065309;28;20192;-70
2022/04/15 00:24:36;;;;;;;38.47;29.85;;;;;;;10.71;100.00;99172.78;2065909;28;20189;-71
2022/04/15 00:25:36;;;;;;;44.13;29.13;;;;;;;10.66;100.00;99179.00;2065776;28;20655;-70
2022/04/15 00:26:38;;;;;;;38.47;29.93;;;;;;;10.59;100.00;99175.13;2065777;28;20558;-71
2022/04/15 00:27:41;;;;;;;45.55;32.35;;;;;;;10.54;100.00;99170.69;2065127;28;20208;-70
2022/04/15 00:28:44;;;;;;;49.58;32.58;;;;;;;10.50;100.00;99175.00;2057319;28;20587;-71
2022/04/15 00:29:46;;;;;;;42.45;32.88;;;;;;;10.45;100.00;99154.53;2056820;28;20289;-70
2022/04/15 00:30:49;;;;;;;39.85;31.30;;;;;;;10.37;100.00;99154.41;2065301;28;20193;-70
2022/04/15 00:31:51;;;;;;;38.22;29.58;;;;;;;10.32;100.00;99160.63;2064673;28;20201;-71
2022/04/15 00:32:52;;;;;;;40.40;29.85;;;;;;;10.27;100.00;99152.72;2065288;28;20683;-69
2022/04/15 00:33:53;;;;;;;41.00;29.47;;;;;;;10.24;100.00;99158.63;2065765;28;20617;-71
2022/04/15 00:34:55;;;;;;;41.78;31.45;;;;;;;10.25;99.79;99183.41;2065831;28;20562;-70
2022/04/15 00:35:56;;;;;;;40.78;30.52;;;;;;;10.28;98.91;99180.16;2065874;28;20200;-70
2022/04/15 00:36:58;;;;;;;43.43;32.87;;;;;;;10.32;98.24;99183.81;2067494;28;20224;-71
2022/04/15 00:37:59;;;;;;;45.90;32.30;;;;;;;10.44;96.09;99189.53;2067360;28;20200;-70
2022/04/15 00:39:00;;;;;;;45.30;32.33;;;;;;;10.48;95.58;99190.50;2065975;28;20300;-70
2022/04/15 00:40:02;;;;;;;39.72;30.58;;;;;;;10.49;94.88;99186.75;2058646;28;20206;-70
2022/04/15 00:41:04;;;;;;;43.08;30.52;;;;;;;10.52;93.30;99193.41;2066767;28;20243;-69
2022/04/15 00:42:08;;;;;;;42.22;31.58;;;;;;;10.58;91.96;99193.00;2067427;28;20286;-71
2022/04/15 00:43:10;;;;;;;40.20;31.10;;;;;;;10.61;91.39;99194.31;2067461;28;20245;-70
2022/04/15 00:44:11;;;;;;;40.50;30.15;;;;;;;10.65;90.36;99208.63;2067285;28;20193;-70
2022/04/15 00:45:15;;;;;;;44.53;31.30;;;;;;;10.65;90.45;99197.97;2067390;28;20193;-70
2022/04/15 00:46:16;;;;;;;41.63;30.25;;;;;;;10.65;90.48;99197.97;2066167;28;20201;-70
2022/04/15 00:47:20;;;;;;;48.40;31.23;;;;;;;10.65;90.11;99189.97;2066719;28;20684;-70
2022/04/15 00:48:24;;;;;;;41.58;31.05;;;;;;;10.66;90.50;99192.34;2066632;28;20201;-70
2022/04/15 00:49:26;;;;;;;45.03;30.35;;;;;;;10.66;89.02;99208.34;2066828;28;20209;-70
2022/04/15 00:50:28;;;;;;;41.13;29.63;;;;;;;10.67;88.46;99215.25;2067460;28;20197;-70
2022/04/15 00:51:33;;;;;;;39.50;30.60;;;;;;;10.68;88.47;99200.84;2066865;28;20223;-70
2022/04/15 00:52:37;;;;;;;38.42;27.95;;;;;;;10.70;88.20;99198.69;2067352;28;20189;-70
2022/04/15 00:53:40;;;;;;;37.28;30.30;;;;;;;10.72;86.64;99207.19;2066506;28;20288;-70
2022/04/15 00:54:43;;;;;;;43.15;29.30;;;;;;;10.75;85.14;99214.59;2066724;28;20566;-70
2022/04/15 00:55:48;;;;;;;40.13;27.48;;;;;;;10.84;83.74;99216.59;2066586;28;20193;-70
2022/04/15 00:56:51;;;;;;;36.95;27.88;;;;;;;10.89;81.22;99221.84;2058887;28;20209;-70
2022/04/15 00:57:53;;;;;;;37.63;28.30;;;;;;;10.97;81.41;99223.84;2058645;28;20222;-70
2022/04/15 00:59:00;;;;;;;35.78;27.63;;;;;;;11.00;80.39;99223.25;2066655;28;20193;-70
2022/04/15 01:00:01;;;;;;;35.28;27.50;;;;;;;10.99;80.65;99219.78;2074697;28;20216;-69
2022/04/15 01:01:05;;;;;;;34.30;27.60;;;;;;;11.00;80.20;99217.91;2066535;28;20199;-70
2022/04/15 01:02:10;;;;;;;47.05;29.85;;;;;;;11.05;79.75;99217.84;2066818;28;20300;-72
2022/04/15 01:03:18;;;;;;;34.45;28.30;;;;;;;11.07;78.75;99229.00;2065667;28;20205;-71
2022/04/15 01:04:21;;;;;;;34.97;27.75;;;;;;;11.05;79.27;99215.16;2058968;28;20198;-71
2022/04/15 01:05:24;;;;;;;37.38;29.50;;;;;;;11.06;79.92;99216.75;2066677;28;20200;-71
2022/04/15 01:06:30;;;;;;;39.17;29.45;;;;;;;11.05;79.99;99212.50;2066069;28;20221;-71
2022/04/15 01:07:34;;;;;;;38.00;28.73;;;;;;;11.02;80.36;99211.19;2067165;28;20204;-71
2022/04/15 01:08:39;;;;;;;39.40;28.25;;;;;;;11.00;80.40;99215.25;2074308;28;20196;-72
2022/04/15 01:09:44;;;;;;;42.50;28.70;;;;;;;10.99;80.96;99211.00;2067347;28;20261;-72
2022/04/15 01:10:50;;;;;;;37.95;28.25;;;;;;;10.94;81.13;99206.53;2067056;28;20212;-70
2022/04/15 01:11:54;;;;;;;36.83;28.02;;;;;;;10.93;81.62;99204.16;2067271;28;20216;-71
2022/04/15 01:12:58;;;;;;;39.30;29.45;;;;;;;10.95;81.28;99200.13;2074394;28;20204;-71
2022/04/15 01:14:00;;;;;;;42.92;28.73;;;;;;;10.93;81.73;99202.28;2074373;28;20677;-71
2022/04/15 01:15:06;;;;;;;39.70;29.55;;;;;;;10.92;82.53;99205.25;2074536;28;20204;-71
2022/04/15 01:16:10;;;;;;;40.35;29.83;;;;;;;10.93;82.54;99201.47;2066435;28;20185;-72
2022/04/15 01:17:13;;;;;;;37.63;29.17;;;;;;;10.91;83.11;99198.31;2058527;28;20288;-71
2022/04/15 01:18:15;;;;;;;40.17;29.92;;;;;;;10.88;83.51;99198.91;2066353;28;20209;-71
2022/04/15 01:19:19;;;;;;;40.50;29.85;;;;;;;10.90;83.92;99200.19;2067333;28;20182;-71
2022/04/15 01:20:22;;;;;;;40.65;29.00;;;;;;;10.88;85.09;99182.91;2066998;28;20652;-70
2022/04/15 01:21:25;;;;;;;37.38;28.42;;;;;;;10.86;85.59;99174.38;2066581;28;20225;-71
2022/04/15 01:22:31;;;;;;;40.47;29.38;;;;;;;10.83;86.24;99177.66;2066288;28;20271;-71
2022/04/15 01:23:34;;;;;;;41.60;29.17;;;;;;;10.84;86.42;99176.56;2059077;28;20189;-71
2022/04/15 01:24:38;;;;;;;38.75;29.02;;;;;;;10.82;86.74;99173.41;2066495;28;20267;-71
2022/04/15 01:25:43;;;;;;;39.65;28.48;;;;;;;10.81;86.92;99171.81;2067007;28;20562;-71
2022/04/15 01:26:45;;;;;;;37.10;27.58;;;;;;;10.80;86.89;99176.38;2066989;28;20656;-71
2022/04/15 01:27:47;;;;;;;37.95;27.85;;;;;;;10.81;86.95;99177.94;2065670;28;20657;-71
2022/04/15 01:28:48;;;;;;;33.10;26.95;;;;;;;10.80;86.94;99175.56;2066221;28;20236;-71
2022/04/15 01:29:49;;;;;;;38.72;28.70;;;;;;;10.80;87.22;99176.38;2074406;28;20200;-71
2022/04/15 01:30:51;;;;;;;32.30;26.97;;;;;;;10.82;87.20;99179.53;2074576;28;20701;-71
2022/04/15 01:31:52;;;;;;;34.20;27.35;;;;;;;10.82;87.63;99173.41;2066276;28;20205;-72
2022/04/15 01:32:54;;;;;;;40.37;29.10;;;;;;;10.86;87.32;99174.38;2066275;28;20227;-70
2022/04/15 01:33:56;;;;;;;37.88;27.25;;;;;;;10.91;87.17;99171.63;2058276;28;20201;-71
2022/04/15 01:34:58;;;;;;;34.67;27.15;;;;;;;10.98;86.64;99174.69;2066370;28;20227;-70
2022/04/15 01:35:58;;;;;;;34.35;25.77;;;;;;;10.99;86.47;99176.28;2073820;28;20189;-71
2022/04/15 01:37:01;;;;;;;31.87;26.23;;;;;;;11.04;86.14;99173.53;2074356;28;20277;-71
2022/04/15 01:38:04;;;;;;;31.02;26.38;;;;;;;11.08;85.95;99173.72;2074289;28;20254;-71
2022/04/15 01:39:10;;;;;;;33.53;26.15;;;;;;;11.09;85.27;99173.41;2066917;28;20193;-71
2022/04/15 01:40:12;;;;;;;32.25;26.10;;;;;;;11.15;84.79;99177.59;2066935;28;20228;-71
2022/04/15 01:41:14;;;;;;;33.60;26.27;;;;;;;11.12;85.17;99183.53;2067101;28;20193;-71
2022/04/15 01:42:16;;;;;;;35.40;26.35;;;;;;;11.17;85.00;99182.63;2066107;28;20200;-71
2022/04/15 01:43:20;;;;;;;29.30;25.00;;;;;;;11.18;84.75;99176.97;2066305;28;20189;-71
2022/04/15 01:44:20;;;;;;;34.33;26.02;;;;;;;11.19;84.52;99183.91;2067050;28;20785;-71
2022/04/15 01:45:22;;;;;;;31.67;24.57;;;;;;;11.17;84.41;99174.59;2066866;28;20646;-70
2022/04/15 01:46:23;;;;;;;30.00;24.95;;;;;;;11.19;84.46;99178.56;2066820;28;20200;-71
2022/04/15 01:47:26;;;;;;;31.63;25.30;;;;;;;11.17;84.73;99175.41;2066417;28;20232;-71
2022/04/15 01:48:28;;;;;;;31.25;25.45;;;;;;;11.18;84.96;99176.97;2066623;28;20615;-71
2022/04/15 01:49:28;;;;;;;31.75;25.67;;;;;;;11.18;85.33;99173.53;2066860;28;20193;-72
2022/04/15 01:50:33;;;;;;;34.50;25.07;;;;;;;11.20;85.50;99166.00;2066944;28;20268;-71
2022/04/15 01:51:34;;;;;;;36.33;25.65;;;;;;;11.21;85.55;99173.72;2065708;28;20734;-71
2022/04/15 01:52:36;;;;;;;33.13;25.05;;;;;;;11.19;85.62;99173.22;2066432;28;20194;-71
2022/04/15 01:53:41;;;;;;;32.13;24.73;;;;;;;11.23;86.01;99174.22;2066796;28;20204;-71
2022/04/15 01:54:45;;;;;;;38.65;25.23;;;;;;;11.21;86.73;99173.72;2066208;28;20204;-72
2022/04/15 01:55:47;;;;;;;31.70;24.88;;;;;;;11.22;87.00;99175.31;2066408;28;20606;-71
2022/04/15 01:56:48;;;;;;;29.75;25.30;;;;;;;11.22;87.55;99177.19;2066133;28;20225;-72
2022/04/15 01:57:51;;;;;;;31.57;26.00;;;;;;;11.26;87.55;99172.81;2066184;28;20197;-71
2022/04/15 01:58:52;;;;;;;30.17;24.80;;;;;;;11.26;88.60;99172.81;2066044;28;20291;-71
2022/04/15 01:59:53;;;;;;;33.17;24.80;;;;;;;11.27;89.32;99174.41;2066274;28;20197;-71
2022/04/15 02:00:55;;;;;;;33.33;24.92;;;;;;;11.24;90.07;99165.13;2066732;28;20203;-71
2022/04/15 02:01:56;;;;;;;33.28;25.05;;;;;;;11.23;90.70;99152.06;2066732;28;20564;-72
2022/04/15 02:02:58;;;;;;;35.30;25.60;;;;;;;11.25;91.23;99157.91;2065995;28;20291;-71
2022/04/15 02:04:00;;;;;;;34.58;25.00;;;;;;;11.26;91.98;99154.91;2058027;28;20202;-72
2022/04/15 02:05:02;;;;;;;33.20;24.60;;;;;;;11.24;92.19;99148.31;2065907;28;20299;-71
2022/04/15 02:06:04;;;;;;;34.28;25.95;;;;;;;11.25;93.52;99150.66;2073642;28;20239;-71
2022/04/15 02:07:05;;;;;;;31.65;25.48;;;;;;;11.26;93.51;99157.59;2074100;28;20571;-70
2022/04/15 02:08:07;;;;;;;38.13;25.40;;;;;;;11.27;94.07;99150.38;2066130;28;20286;-71
2022/04/15 02:09:08;;;;;;;35.10;25.10;;;;;;;11.27;94.33;99151.16;2066027;28;20348;-71
2022/04/15 02:10:13;;;;;;;37.57;26.37;;;;;;;11.27;94.20;99150.38;2066005;28;20200;-71
2022/04/15 02:11:14;;;;;;;33.95;26.50;;;;;;;11.26;95.18;99146.91;2058572;28;20201;-71
2022/04/15 02:12:16;;;;;;;38.40;26.10;;;;;;;11.26;95.49;99154.91;2058018;28;20206;-71
2022/04/15 02:13:17;;;;;;;31.25;25.35;;;;;;;11.32;95.67;99155.63;2057947;28;20194;-71
2022/04/15 02:14:18;;;;;;;29.50;25.33;;;;;;;11.40;95.83;99164.81;2066165;28;20198;-70
2022/04/15 02:15:20;;;;;;;34.83;26.38;;;;;;;11.45;95.22;99156.69;2065898;28;20208;-70
2022/04/15 02:16:22;;;;;;;32.03;25.35;;;;;;;11.50;95.26;99165.41;2066265;28;20193;-72
2022/04/15 02:17:25;;;;;;;34.67;26.08;;;;;;;11.49;95.23;99165.69;2065528;28;20221;-71
2022/04/15 02:18:29;;;;;;;31.52;25.58;;;;;;;11.47;96.35;99162.53;2066019;28;20204;-72
2022/04/15 02:19:30;;;;;;;34.15;25.35;;;;;;;11.45;96.70;99157.47;2065910;28;20560;-70
2022/04/15 02:20:32;;;;;;;32.70;25.00;;;;;;;11.42;96.46;99155.41;2065905;28;20292;-71
2022/04/15 02:21:32;;;;;;;36.65;26.30;;;;;;;11.44;97.25;99142.53;2073615;28;20275;-71
2022/04/15 02:22:36;;;;;;;30.27;25.37;;;;;;;11.52;97.03;99155.19;2066517;28;20208;-71
2022/04/15 02:23:38;;;;;;;34.30;25.40;;;;;;;11.52;97.12;99162.41;2066519;28;20555;-71
2022/04/15 02:24:39;;;;;;;32.03;24.57;;;;;;;11.54;97.62;99160.22;2066776;28;20192;-71
2022/04/15 02:25:42;;;;;;;33.05;25.67;;;;;;;11.58;98.16;99155.88;2066484;28;20193;-71
2022/04/15 02:26:43;;;;;;;31.90;25.95;;;;;;;11.61;97.95;99160.63;2066616;28;20280;-72
2022/04/15 02:27:44;;;;;;;30.23;24.48;;;;;;;11.64;98.64;99157.38;2065890;28;20252;-72
2022/04/15 02:28:47;;;;;;;29.07;25.20;;;;;;;11.65;98.62;99161.63;2057772;28;20269;-71
2022/04/15 02:29:52;;;;;;;35.90;24.13;;;;;;;11.73;99.16;99150.22;2057766;28;20212;-70
2022/04/15 02:30:54;;;;;;;30.63;25.05;;;;;;;11.73;98.73;99150.22;2065963;28;20228;-72
2022/04/15 02:31:56;;;;;;;30.60;24.48;;;;;;;11.73;99.48;99152.09;2065737;28;20208;-72
2022/04/15 02:32:57;;;;;;;29.08;24.73;;;;;;;11.69;99.83;99159.91;2065895;28;20223;-72
2022/04/15 02:33:59;;;;;;;32.60;24.80;;;;;;;11.69;100.00;99143.88;2066465;28;20200;-72
2022/04/15 02:35:00;;;;;;;32.70;25.33;;;;;;;11.68;100.00;99152.19;2066462;28;20185;-71
2022/04/15 02:36:01;;;;;;;30.30;25.37;;;;;;;11.68;100.00;99147.66;2065856;28;20676;-71
2022/04/15 02:37:03;;;;;;;31.88;24.42;;;;;;;11.68;100.00;99153.00;2066483;28;20208;-71
2022/04/15 02:38:05;;;;;;;31.63;24.98;;;;;;;11.67;100.00;99159.44;2066427;28;20550;-71
2022/04/15 02:39:10;;;;;;;36.65;25.60;;;;;;;11.68;100.00;99160.22;2066458;28;20597;-72
2022/04/15 02:40:12;;;;;;;29.20;24.30;;;;;;;11.66;100.00;99160.53;2065858;28;20201;-70
2022/04/15 02:41:14;;;;;;;29.23;23.92;;;;;;;11.67;100.00;99159.44;2065840;28;20201;-71
2022/04/15 02:42:16;;;;;;;27.55;24.52;;;;;;;11.66;100.00;99165.88;2073795;28;20655;-71
2022/04/15 02:43:17;;;;;;;34.88;25.52;;;;;;;11.64;100.00;99157.38;2073813;28;20216;-72
2022/04/15 02:44:20;;;;;;;29.52;24.15;;;;;;;11.62;100.00;99154.19;2066565;28;20189;-71
2022/04/15 02:45:24;;;;;;;33.17;25.70;;;;;;;11.62;100.00;99162.19;2066505;28;20651;-70
2022/04/15 02:46:27;;;;;;;32.83;25.25;;;;;;;11.55;100.00;99159.97;2066368;28;20224;-71
2022/04/15 02:47:28;;;;;;;36.83;25.27;;;;;;;11.50;100.00;99157.38;2065304;28;20201;-72
2022/04/15 02:48:30;;;;;;;33.88;24.08;;;;;;;11.47;100.00;99154.53;2065907;28;20193;-71
2022/04/15 02:49:31;;;;;;;29.90;24.98;;;;;;;11.47;100.00;99158.00;2066328;28;20197;-72
2022/04/15 02:50:34;;;;;;;29.10;24.43;;;;;;;11.44;100.00;99153.22;2066432;28;20280;-71
2022/04/15 02:51:36;;;;;;;31.77;25.90;;;;;;;11.46;100.00;99161.72;2073346;28;20246;-71
2022/04/15 02:52:38;;;;;;;37.65;27.13;;;;;;;11.41;100.00;99153.03;2073674;28;20592;-72
2022/04/15 02:53:42;;;;;;;34.15;26.13;;;;;;;11.41;100.00;99150.38;2073986;28;20756;-71
2022/04/15 02:54:44;;;;;;;28.38;25.10;;;;;;;11.42;100.00;99154.63;2073529;28;20254;-71
2022/04/15 02:55:44;;;;;;;32.72;26.15;;;;;;;11.39;100.00;99157.91;2066351;28;20562;-71
2022/04/15 02:56:49;;;;;;;31.47;25.47;;;;;;;11.36;100.00;99150.47;2065635;28;20364;-71
2022/04/15 02:57:50;;;;;;;28.92;25.17;;;;;;;11.36;100.00;99156.59;2065964;28;20320;-72
2022/04/15 02:58:56;;;;;;;29.42;24.75;;;;;;;11.36;100.00;99161.94;2065059;28;20208;-71
2022/04/15 02:59:58;;;;;;;38.60;27.05;;;;;;;11.41;100.00;99147.69;2058052;28;20197;-71
2022/04/15 03:01:00;;;;;;;35.72;26.75;;;;;;;11.38;100.00;99150.94;2065803;28;20193;-71
2022/04/15 03:02:01;;;;;;;29.75;26.20;;;;;;;11.39;100.00;99155.22;2066285;28;20250;-72
2022/04/15 03:03:03;;;;;;;30.53;26.07;;;;;;;11.43;100.00;99172.22;2073640;28;20230;-71
2022/04/15 03:04:05;;;;;;;33.08;26.00;;;;;;;11.47;100.00;99165.22;2073919;28;20197;-71
2022/04/15 03:05:09;;;;;;;32.25;26.75;;;;;;;11.49;100.00;99160.34;2073613;28;20235;-71
2022/04/15 03:06:09;;;;;;;34.25;27.45;;;;;;;11.47;100.00;99163.34;2064971;28;20205;-71
2022/04/15 03:07:13;;;;;;;32.73;26.67;;;;;;;11.53;100.00;99159.44;2065678;28;20276;-71
2022/04/15 03:08:14;;;;;;;31.48;26.33;;;;;;;11.49;100.00;99166.50;2073497;28;20606;-71
2022/04/15 03:09:15;;;;;;;30.07;26.83;;;;;;;11.51;100.00;99163.50;2073614;28;20204;-71
2022/04/15 03:10:16;;;;;;;29.98;26.27;;;;;;;11.59;100.00;99162.81;2073679;28;20197;-72
2022/04/15 03:11:18;;;;;;;33.03;27.03;;;;;;;11.63;100.00;99165.66;2066132;28;20243;-71
2022/04/15 03:12:24;;;;;;;30.58;26.73;;;;;;;11.61;100.00;99163.28;2066209;28;20196;-71
2022/04/15 03:13:27;;;;;;;35.88;27.58;;;;;;;11.61;100.00;99169.44;2066357;28;20196;-71
2022/04/15 03:14:29;;;;;;;32.15;26.70;;;;;;;11.62;100.00;99170.22;2066160;28;20670;-70
2022/04/15 03:15:30;;;;;;;30.90;25.98;;;;;;;11.58;100.00;99166.56;2065508;28;20691;-71
2022/04/15 03:16:32;;;;;;;32.47;26.97;;;;;;;11.59;100.00;99171.63;2057444;28;20545;-71
2022/04/15 03:17:34;;;;;;;34.33;27.92;;;;;;;11.59;100.00;99176.97;2057489;28;20217;-71
2022/04/15 03:18:36;;;;;;;36.80;26.95;;;;;;;11.56;100.00;99171.44;2057551;28;20233;-71
2022/04/15 03:19:37;;;;;;;38.17;27.63;;;;;;;11.54;100.00;99174.38;2065652;28;20547;-71
2022/04/15 03:20:42;;;;;;;31.85;26.70;;;;;;;11.52;100.00;99175.78;2066146;28;20239;-70
2022/04/15 03:21:44;;;;;;;32.28;27.10;;;;;;;11.47;100.00;99170.56;2065537;28;20715;-71
2022/04/15 03:22:45;;;;;;;40.80;27.80;;;;;;;11.42;100.00;99166.09;2065988;28;20198;-71
2022/04/15 03:23:47;;;;;;;33.92;27.58;;;;;;;11.43;100.00;99167.69;2073579;28;20200;-71
2022/04/15 03:24:50;;;;;;;33.60;27.08;;;;;;;11.40;100.00;99165.59;2073646;28;20188;-71
2022/04/15 03:25:52;;;;;;;37.95;27.17;;;;;;;11.41;100.00;99164.50;2066281;28;20189;-71
2022/04/15 03:26:53;;;;;;;37.63;28.27;;;;;;;11.44;100.00;99171.13;2064564;28;20212;-71
2022/04/15 03:27:58;;;;;;;40.42;28.40;;;;;;;11.46;100.00;99171.63;2057288;28;20197;-71
2022/04/15 03:28:59;;;;;;;37.08;28.60;;;;;;;11.41;100.00;99171.75;2065648;28;20612;-71
2022/04/15 03:30:02;;;;;;;39.50;29.07;;;;;;;11.42;100.00;99167.97;2066028;28;20551;-71
2022/04/15 03:31:03;;;;;;;38.88;30.58;;;;;;;11.38;100.00;99180.34;2066107;28;20193;-72
2022/04/15 03:32:05;;;;;;;39.07;29.47;;;;;;;11.35;100.00;99171.03;2065374;28;20232;-71
2022/04/15 03:33:06;;;;;;;38.45;29.08;;;;;;;11.37;100.00;99189.44;2065429;28;20193;-71
2022/04/15 03:34:10;;;;;;;40.43;28.90;;;;;;;11.40;100.00;99183.53;2073405;28;20200;-71
2022/04/15 03:35:11;;;;;;;40.05;28.70;;;;;;;11.42;100.00;99186.69;2065287;28;20196;-71
2022/04/15 03:36:13;;;;;;;42.80;29.43;;;;;;;11.41;100.00;99191.22;2065194;28;20287;-71
2022/04/15 03:37:14;;;;;;;39.47;29.02;;;;;;;11.43;100.00;99188.25;2064684;28;20215;-71
2022/04/15 03:38:16;;;;;;;35.27;28.20;;;;;;;11.40;100.00;99191.53;2057320;28;20225;-71
2022/04/15 03:39:16;;;;;;;39.75;29.23;;;;;;;11.38;100.00;99188.34;2065418;28;20240;-71
2022/04/15 03:40:20;;;;;;;41.20;28.67;;;;;;;11.40;100.00;99186.97;2065000;28;20251;-71
2022/04/15 03:41:24;;;;;;;45.63;30.45;;;;;;;11.39;100.00;99187.28;2065542;28;20197;-72
2022/04/15 03:42:26;;;;;;;41.40;30.23;;;;;;;11.37;100.00;99173.41;2064831;28;20213;-72
2022/04/15 03:43:30;;;;;;;37.40;29.70;;;;;;;11.35;100.00;99181.72;2057162;28;20221;-70
2022/04/15 03:44:31;;;;;;;34.33;28.95;;;;;;;11.34;100.00;99174.81;2057636;28;20228;-71
2022/04/15 03:45:34;;;;;;;42.17;30.93;;;;;;;11.33;100.00;99179.34;2057249;28;20224;-72
2022/04/15 03:46:38;;;;;;;43.20;31.50;;;;;;;11.31;100.00;99176.19;2057891;28;20616;-71
2022/04/15 03:47:40;;;;;;;40.33;30.80;;;;;;;11.30;100.00;99173.84;2065372;28;20556;-72
2022/04/15 03:48:41;;;;;;;41.00;31.00;;;;;;;11.28;100.00;99176.00;2065144;28;20256;-71
2022/04/15 03:49:45;;;;;;;46.80;31.63;;;;;;;11.30;100.00;99185.31;2065326;28;20181;-71
2022/04/15 03:50:46;;;;;;;41.10;30.98;;;;;;;11.27;100.00;99174.41;2065894;28;20628;-71
2022/04/15 03:51:48;;;;;;;42.90;30.37;;;;;;;11.27;100.00;99185.09;2064743;28;20244;-71
2022/04/15 03:52:51;;;;;;;39.33;30.73;;;;;;;11.29;100.00;99196.25;2057218;28;20204;-71
2022/04/15 03:53:54;;;;;;;45.33;32.72;;;;;;;11.27;100.00;99193.88;2056760;28;20673;-72
2022/04/15 03:54:55;;;;;;;40.22;31.52;;;;;;;11.26;100.00;99196.88;2065308;28;20619;-71
2022/04/15 03:55:58;;;;;;;42.38;31.65;;;;;;;11.22;100.00;99191.34;2065969;28;20193;-72
2022/04/15 03:56:58;;;;;;;39.00;30.42;;;;;;;11.16;100.00;99187.16;2065898;28;20611;-72
2022/04/15 03:58:00;;;;;;;42.03;32.40;;;;;;;11.16;100.00;99189.84;2065213;28;20363;-71
2022/04/15 03:59:03;;;;;;;44.20;31.05;;;;;;;11.15;100.00;99185.59;2065233;28;20259;-71
2022/04/15 04:00:07;;;;;;;46.90;31.33;;;;;;;11.14;100.00;99184.00;2073475;28;20230;-71
2022/04/15 04:01:08;;;;;;;41.78;30.77;;;;;;;11.15;100.00;99182.13;2072921;28;20200;-71
2022/04/15 04:02:13;;;;;;;45.17;32.53;;;;;;;11.14;100.00;99177.88;2073425;28;20710;-71
2022/04/15 04:03:17;;;;;;;42.78;31.30;;;;;;;11.13;100.00;99181.66;2066046;28;20204;-72
2022/04/15 04:04:18;;;;;;;41.45;30.98;;;;;;;11.17;100.00;99185.28;2065842;28;20208;-72
2022/04/15 04:05:20;;;;;;;43.57;31.70;;;;;;;11.21;100.00;99191.63;2065862;28;20189;-71
2022/04/15 04:06:21;;;;;;;43.22;31.63;;;;;;;11.20;100.00;99200.72;2065439;28;20224;-71
2022/04/15 04:07:22;;;;;;;45.53;32.70;;;;;;;11.16;100.00;99197.84;2066063;28;20287;-72
2022/04/15 04:08:24;;;;;;;42.13;32.25;;;;;;;11.17;100.00;99199.44;2065090;28;20205;-71
2022/04/15 04:09:25;;;;;;;41.13;32.22;;;;;;;11.20;100.00;99198.03;2057171;28;20288;-71
2022/04/15 04:10:27;;;;;;;51.03;33.27;;;;;;;11.15;100.00;99198.94;2065882;28;20189;-71
2022/04/15 04:11:28;;;;;;;43.50;33.15;;;;;;;11.14;100.00;99201.91;2068381;28;20531;-71
2022/04/15 04:12:31;;;;;;;44.97;33.93;;;;;;;11.16;100.00;99213.88;2068757;28;20185;-71
2022/04/15 04:13:32;;;;;;;42.42;33.60;;;;;;;11.18;100.00;99210.91;2067760;28;20205;-72
2022/04/15 04:14:35;;;;;;;45.57;33.23;;;;;;;11.20;100.00;99217.53;2068071;28;20195;-71
2022/04/15 04:15:40;;;;;;;47.20;35.78;;;;;;;11.21;100.00;99216.47;2067928;28;20533;-71
2022/04/15 04:16:43;;;;;;;49.13;35.35;;;;;;;11.18;100.00;99218.91;2068044;28;20233;-71
2022/04/15 04:17:46;;;;;;;44.58;33.38;;;;;;;11.20;100.00;99222.88;2067342;28;20207;-71
2022/04/15 04:18:47;;;;;;;49.28;34.85;;;;;;;11.20;100.00;99222.88;2067935;28;20193;-72
2022/04/15 04:19:49;;;;;;;47.87;34.00;;;;;;;11.20;100.00;99227.41;2067799;28;20199;-71
2022/04/15 04:20:50;;;;;;;49.35;33.65;;;;;;;11.20;100.00;99233.56;2059801;28;20202;-71
2022/04/15 04:21:51;;;;;;;46.22;32.83;;;;;;;11.18;100.00;99233.06;2067451;28;20249;-71
2022/04/15 04:22:54;;;;;;;44.23;34.10;;;;;;;11.18;100.00;99235.72;2067821;28;20197;-72
2022/04/15 04:23:55;;;;;;;43.03;32.47;;;;;;;11.20;100.00;99228.22;2067941;28;20255;-71
2022/04/15 04:24:56;;;;;;;44.57;33.33;;;;;;;11.18;100.00;99224.25;2068524;28;20707;-72
2022/04/15 04:25:57;;;;;;;45.25;34.20;;;;;;;11.17;100.00;99228.81;2068685;28;20663;-71
2022/04/15 04:26:59;;;;;;;44.07;34.17;;;;;;;11.20;100.00;99240.78;2068427;28;20193;-71
2022/04/15 04:28:00;;;;;;;47.90;34.55;;;;;;;11.24;100.00;99244.44;2068543;28;20189;-71
2022/04/15 04:29:01;;;;;;;47.00;34.15;;;;;;;11.24;100.00;99249.78;2067890;28;20554;-70
2022/04/15 04:30:07;;;;;;;44.40;33.73;;;;;;;11.26;100.00;99245.72;2068104;28;20223;-71
2022/04/15 04:31:09;;;;;;;48.28;34.88;;;;;;;11.25;100.00;99249.50;2068849;28;20529;-71
2022/04/15 04:32:12;;;;;;;42.40;33.00;;;;;;;11.25;100.00;99246.03;2067913;28;20203;-70
2022/04/15 04:33:12;;;;;;;51.88;34.72;;;;;;;11.32;100.00;99244.56;2059797;28;20225;-71
2022/04/15 04:34:14;;;;;;;47.90;34.43;;;;;;;11.34;100.00;99249.59;2067830;28;20240;-70
2022/04/15 04:35:17;;;;;;;39.55;33.30;;;;;;;11.32;100.00;99247.22;2068575;28;20188;-71
2022/04/15 04:36:21;;;;;;;50.20;34.65;;;;;;;11.30;100.00;99243.28;2067825;28;20220;-71
2022/04/15 04:37:23;;;;;;;43.95;33.63;;;;;;;11.32;100.00;99243.78;2068534;28;20185;-70
2022/04/15 04:38:24;;;;;;;45.05;33.58;;;;;;;11.28;100.00;99242.75;2068621;28;20645;-70
2022/04/15 04:39:27;;;;;;;48.97;34.90;;;;;;;11.26;100.00;99243.06;2067756;28;20396;-71
2022/04/15 04:40:29;;;;;;;44.83;33.33;;;;;;;11.27;100.00;99241.19;2067848;28;20500;-70
2022/04/15 04:41:29;;;;;;;46.67;34.58;;;;;;;11.27;100.00;99243.84;2067712;28;20603;-71
2022/04/15 04:42:33;;;;;;;44.50;34.23;;;;;;;11.27;100.00;99249.97;2067719;28;20247;-71
2022/04/15 04:43:36;;;;;;;49.80;33.53;;;;;;;11.25;100.00;99246.81;2075721;28;20208;-71
2022/04/15 04:44:39;;;;;;;46.08;33.88;;;;;;;11.25;100.00;99252.16;2075850;28;20250;-71